Greenwood, Arkansas
Current Conditions -  °F | °C
As of 5:53 PM on Thursday 18 Dec 2014 (Local Time) from KFSM Reporting Station
Overcast Overcast  
Wind Chill: 38°   Ceiling: 2300
Heat Index: 41°   Visibility: 10mi
Dew Point: 38°   Wind: 5mph
Humidity: 89%   Direction: 70°ENE
Pressure: 30.19"   Gusts: NA
Location:  35.22°N, 94.26°W
Report Text: KFSM 182353Z 07004KT 10SM FEW008 OVC023 05/03 A3019 RMK AO2 SLP226 T00500033 10050 20044 53008
Loading
Personal Weather Stations






























Interactive Weather Map New forecast layout! Learn more

10-Day Weather Forecast

Advertisements
Track Severe Weather on mobile